Nearby METAR Reports

 

KTEB - Teterboro, New Jersey, USA
Distance from station: ENE 2mi, 4km
Updated: 11/24/2017 5:51am
Clear
Clear
 Wind from calm
Wind: Calm
Temperature: 28°F , -2°C
Dew Point: 21°F , -6°C
Humidity: 74%
Barometer: 30.04 inHg , 1017.3 hPa
Clouds: Clear
Visibility: 10 miles , 16 km
2017/11/24 10:51 KTEB 241051Z 00000KT 10SM CLR M02/M06 A3004 RMK AO2 SLP171 T10221056
KNYC - Nyc/Central Park, New York, USA
Distance from station: SE 8mi, 13km
Updated: 11/24/2017 5:51am
Clear
Clear
 Wind from calm
Wind: Calm
Temperature: 36°F , 2°C
Dew Point: 21°F , -6°C
Humidity: 56%
Barometer: 30.06 inHg , 1017.9 hPa
Clouds: Clear
Visibility: 10 miles , 16 km
2017/11/24 10:51 KNYC 241051Z AUTO 00000KT 10SM CLR 02/M06 A3006 RMK AO2 SLP170 T00221061 $
 
KCDW - Caldwell, New Jersey, USA
Distance from station: WNW 10mi, 17km
Updated: 11/24/2017 5:53am
Clear
Clear
 Wind from calm
Wind: Calm
Temperature: 27°F , -3°C
Dew Point: 21°F , -6°C
Humidity: 80%
Barometer: 30.05 inHg , 1017.6 hPa
Clouds: Clear
Visibility: 10 miles , 16 km
2017/11/24 10:53 KCDW 241053Z AUTO 00000KT 10SM CLR M03/M06 A3005 RMK AO2 SLP181 T10331056 TSNO
KLGA - Nyc/La Guardia, New York, USA
Distance from station: ESE 12mi, 19km
Updated: 11/24/2017 5:51am
Clear
Clear
 Wind from WSW
Wind: WSW 3 mph , 6 km/h
Temperature: 37°F , 3°C
Dew Point: 21°F , -6°C
Humidity: 52%
Barometer: 30.04 inHg , 1017.3 hPa
Clouds: Clear
Visibility: 10 miles , 16 km
2017/11/24 10:51 KLGA 241051Z 25003KT 10SM CLR 03/M06 A3004 RMK AO2 SLP171 T00331061
 
KEWR - Newark, New Jersey, USA
Distance from station: SSW 12mi, 20km
Updated: 11/24/2017 5:51am
Clear
Clear
 Wind from SW
Wind: SW 7 mph , 11 km/h
Temperature: 28°F , -2°C
Wind Chill: 21°F , -6°C
Dew Point: 21°F , -6°C
Humidity: 74%
Barometer: 30.05 inHg , 1017.6 hPa
Clouds: Clear
Visibility: 10 miles , 16 km
2017/11/24 10:51 KEWR 241051Z 22006KT 10SM CLR M02/M06 A3005 RMK AO2 SLP174 T10221061
KMMU - Morristown Muni, New Jersey, USA
Distance from station: WSW 18mi, 29km
Updated: 11/24/2017 5:55am
Clear
Clear
 Wind from calm
Wind: Calm
Temperature: 23°F , -5°C
Dew Point: 21°F , -6°C
Humidity: 93%
Barometer: 30.04 inHg , 1017.3 hPa
Clouds: Clear
Visibility: 10 miles , 16 km
2017/11/24 10:55 KMMU 241055Z AUTO 00000KT 10SM CLR M05/M06 A3004 RMK AO2
 
KJFK - Nyc/Jfk Arpt, New York, USA
Distance from station: SE 23mi, 36km
Updated: 11/24/2017 5:51am
Clear
Clear
 Wind from WSW
Wind: WSW 9 mph , 15 km/h
Temperature: 34°F , 1°C
Wind Chill: 27°F , -3°C
Dew Point: 25°F , -4°C
Humidity: 70%
Barometer: 30.06 inHg , 1017.9 hPa
Clouds: Clear
Visibility: 10 miles , 16 km
2017/11/24 10:51 KJFK 241051Z 24008KT 10SM CLR 01/M04 A3006 RMK AO2 SLP178 T00111039
KHPN - White Plains, New York, USA
Distance from station: NE 25mi, 40km
Updated: 11/24/2017 5:56am
Clear
Clear
 Wind from W
Wind: W 3 mph , 6 km/h
Temperature: 28°F , -2°C
Dew Point: 21°F , -6°C
Humidity: 74%
Barometer: 30.01 inHg , 1016.3 hPa
Clouds: Clear
Visibility: 10 miles , 16 km
2017/11/24 10:56 KHPN 241056Z 28003KT 10SM CLR M02/M06 A3001 RMK AO2 SLP170 T10221061
 
KSMQ - Somerville, New Jersey, USA
Distance from station: WSW 34mi, 55km
Updated: 11/24/2017 5:53am
Clear
Clear
 Wind from calm
Wind: Calm
Temperature: 21°F , -6°C
Dew Point: 19°F , -7°C
Humidity: 93%
Barometer: 30.04 inHg , 1017.3 hPa
Clouds: Clear
Visibility: 10 miles , 16 km
2017/11/24 10:53 KSMQ 241053Z AUTO 00000KT 10SM CLR M06/M07 A3004 RMK AO2 SLP174 I1000 T10611072
K12N - Andover, New Jersey, USA
Distance from station: WNW 36mi, 57km
Updated: 11/24/2017 5:54am

 Wind from calm
Wind: Calm
Temperature: 23°F , -5°C
Dew Point: 21°F , -6°C
Humidity: 93%
Barometer: 30.03 inHg , 1016.9 hPa
2017/11/24 10:54 K12N 241054Z AUTO 00000KT M05/M06 A3003 RMK AO1 SLP181 T10501061
 
KFRG - Farmingdale, New York, USA
Distance from station: ESE 36mi, 58km
Updated: 11/24/2017 5:53am
Clear
Clear
 Wind from calm
Wind: Calm
Temperature: 28°F , -2°C
Dew Point: 25°F , -4°C
Humidity: 86%
Barometer: 30.05 inHg , 1017.6 hPa
Clouds: Clear
Visibility: 10 miles , 16 km
2017/11/24 10:53 KFRG 241053Z AUTO 00000KT 10SM CLR M02/M04 A3005 RMK AO2 SLP174 T10221044
KFWN - Sussex, New Jersey, USA
Distance from station: NW 37mi, 60km
Updated: 11/24/2017 5:53am
Clear
Clear
 Wind from calm
Wind: Calm
Temperature: 21°F , -6°C
Dew Point: 19°F , -7°C
Humidity: 93%
Barometer: 30.02 inHg , 1016.6 hPa
Clouds: Clear
Visibility: 10 miles , 16 km
2017/11/24 10:53 KFWN 241053Z AUTO 00000KT 10SM CLR M06/M07 A3002 RMK AO2 SLP170 T10561067
 
KSWF - Newburgh/Stewart, New York, USA
Distance from station: 0 45mi, 72km
Updated: 11/24/2017 4:45am
NOT Current
Clear
Clear
 Wind from W
Wind: W 8 mph , 13 km/h
Temperature: 28°F , -2°C
Wind Chill: 20°F , -7°C
Dew Point: 23°F , -5°C
Humidity: 80%
Barometer: 30.01 inHg , 1016.3 hPa
Clouds: Clear
Visibility: 10 miles , 16 km
2017/11/24 09:45 KSWF 240945Z 26007KT 10SM SKC M02/M05 A3001
KMGJ - Montgomery, New York, USA
Distance from station: NNW 47mi, 75km
Updated: 11/24/2017 5:54am
Clear
Clear
 Wind from SSW
Wind: SSW 7 mph , 11 km/h
Temperature: 25°F , -4°C
Wind Chill: 17°F , -8°C
Dew Point: 19°F , -7°C
Humidity: 80%
Barometer: 30.01 inHg , 1016.3 hPa
Clouds: Clear
Visibility: 10 miles , 16 km
2017/11/24 10:54 KMGJ 241054Z AUTO 21006KT 10SM CLR M04/M07 A3001 RMK AO2 SLP167 T10441067
 
KBLM - Belmar/Farmdale, New Jersey, USA
Distance from station: S 47mi, 76km
Updated: 11/24/2017 5:56am
Clear
Clear
 Wind from SW
Wind: SW 5 mph , 7 km/h
Temperature: 28°F , -2°C
Wind Chill: 22°F , -6°C
Dew Point: 21°F , -6°C
Humidity: 74%
Barometer: 30.06 inHg , 1017.9 hPa
Clouds: Clear
Visibility: 10 miles , 16 km
2017/11/24 10:56 KBLM 241056Z AUTO 22004KT 10SM CLR M02/M06 A3006 RMK AO2 SLP186 T10221056 FZRANO
KDXR - Danbury, Connecticut, USA
Distance from station: NE 47mi, 76km
Updated: 11/24/2017 5:53am
Clear
Clear
 Wind from SW
Wind: SW 3 mph , 6 km/h
Temperature: 23°F , -5°C
Dew Point: 19°F , -7°C
Humidity: 86%
Barometer: 30.03 inHg , 1016.9 hPa
Clouds: Clear
Visibility: 10 miles , 16 km
2017/11/24 10:53 KDXR 241053Z AUTO 23003KT 10SM CLR M05/M07 A3003 RMK AO2 SLP172 T10501067
 
KISP - Islip, New York, USA
Distance from station: E 52mi, 83km
Updated: 11/24/2017 5:56am
Clear
Clear
 Wind from calm
Wind: Calm
Temperature: 28°F , -2°C
Dew Point: 23°F , -5°C
Humidity: 80%
Barometer: 30.04 inHg , 1017.3 hPa
Clouds: Clear
Visibility: 10 miles , 16 km
2017/11/24 10:56 KISP 241056Z 00000KT 10SM CLR M02/M05 A3004 RMK AO2 SLP173 T10171050
KBDR - Bridgeport, Connecticut, USA
Distance from station: ENE 54mi, 87km
Updated: 11/24/2017 5:52am
Clear
Clear
 Wind from calm
Wind: Calm
Temperature: 30°F , -1°C
Dew Point: 21°F , -6°C
Humidity: 69%
Barometer: 30.04 inHg , 1017.3 hPa
Clouds: Clear
Visibility: 10 miles , 16 km
2017/11/24 10:52 KBDR 241052Z AUTO 00000KT 10SM CLR M01/M06 A3004 RMK AO2 SLP171 T10111056
 
KTTN - Trenton, New Jersey, USA
Distance from station: SW 55mi, 88km
Updated: 11/24/2017 5:53am
Clear
Clear
 Wind from calm
Wind: Calm
Temperature: 27°F , -3°C
Dew Point: 21°F , -6°C
Humidity: 80%
Barometer: 30.05 inHg , 1017.6 hPa
Clouds: Clear
Visibility: 10 miles , 16 km
2017/11/24 10:53 KTTN 241053Z 00000KT 10SM CLR M03/M06 A3005 RMK AO2 SLP171 T10281056
KPOU - Poughkeepsie, New York, USA
Distance from station: N 55mi, 89km
Updated: 11/24/2017 5:53am
Clear
Clear
 Wind from calm
Wind: Calm
Temperature: 27°F , -3°C
Dew Point: 21°F , -6°C
Humidity: 80%
Barometer: 30.03 inHg , 1016.9 hPa
Clouds: Clear
Visibility: 10 miles , 16 km
2017/11/24 10:53 KPOU 241053Z AUTO 00000KT 10SM CLR M03/M06 A3003 RMK AO2 SLP167 T10331061
 
KNEL - Lakehurst Nas, New Jersey, USA
Distance from station: SSW 59mi, 95km
Updated: 11/24/2017 5:00am
Clear
Clear
 Wind from calm
Wind: Calm
Temperature: 21°F , -6°C
Dew Point: 19°F , -7°C
Humidity: 93%
Barometer: 30.05 inHg , 1017.6 hPa
Clouds: Clear
Visibility: 9 miles , 14 km
2017/11/24 10:00 KNEL 241000Z AUTO 00000KT 9SM CLR M06/M07 A3005 RMK AO2 SLP174 T10611072 FZRANO PNO $
KWRI - Wrightst/Mcguire, New Jersey, USA
Distance from station: SSW 63mi, 102km
Updated: 11/24/2017 5:56am
Clear
Clear
 Wind from WSW
Wind: WSW 6 mph , 9 km/h
Temperature: 27°F , -3°C
Wind Chill: 20°F , -7°C
Dew Point: 23°F , -5°C
Humidity: 86%
Barometer: 30.03 inHg , 1016.9 hPa
Clouds: Clear
Visibility: 10 miles , 16 km
2017/11/24 10:56 KWRI 241056Z 24005KT 10SM CLR M03/M05 A3003 RMK AO2A SLP170 T10321052 $
 
KHWV - Shirley, New York, USA
Distance from station: E 64mi, 103km
Updated: 11/24/2017 5:56am
Clear
Clear
 Wind from calm
Wind: Calm
Temperature: 28°F , -2°C
Dew Point: 25°F , -4°C
Humidity: 86%
Barometer: 30.05 inHg , 1017.6 hPa
Clouds: Clear
Visibility: 10 miles , 16 km
2017/11/24 10:56 KHWV 241056Z AUTO 00000KT 10SM CLR M02/M04 A3005 RMK AO2 SLP176 T10171044
KMJX - Toms River, New Jersey, USA
Distance from station: S 64mi, 104km
Updated: 11/24/2017 4:56am
Clear
Clear
 Wind from SW
Wind: SW 3 mph , 6 km/h
Temperature: 21°F , -6°C
Dew Point: 19°F , -7°C
Humidity: 93%
Barometer: 30.08 inHg , 1018.6 hPa
Clouds: Clear
Visibility: 10 miles , 16 km
2017/11/24 09:56 KMJX 240956Z AUTO 23003KT 10SM CLR M06/M07 A3008 RMK AO2 SLP193 T10611072 FZRANO
 
KDYL - Doylestown, Pennsylvania, USA
Distance from station: SW 65mi, 104km
Updated: 11/24/2017 5:54am
Clear
Clear
 Wind from calm
Wind: Calm
Temperature: 28°F , -2°C
Dew Point: 21°F , -6°C
Humidity: 74%
Barometer: 30.04 inHg , 1017.3 hPa
Clouds: Clear
Visibility: 10 miles , 16 km
2017/11/24 10:54 KDYL 241054Z AUTO 00000KT 10SM CLR M02/M06 A3004 RMK AO2 SLP181 T10221061
KOXC - Oxford/Waterbury, Connecticut, USA
Distance from station: NE 65mi, 105km
Updated: 11/24/2017 5:51am
Clear
Clear
 Wind from NNW
Wind: NNW 3 mph , 6 km/h
Temperature: 27°F , -3°C
Dew Point: 19°F , -7°C
Humidity: 74%
Barometer: 30.00 inHg , 1015.9 hPa
Clouds: Clear
Visibility: 10 miles , 16 km
2017/11/24 10:51 KOXC 241051Z AUTO 33003KT 10SM CLR M03/M07 A3000 RMK AO2 SLP179 T10281067 FZRANO
 
KMSV - Monticello, New York, USA
Distance from station: NNW 69mi, 111km
Updated: 11/24/2017 5:56am
Clear
Clear
 Wind from calm
Wind: Calm
Temperature: 23°F , -5°C
Dew Point: 19°F , -7°C
Humidity: 86%
Barometer: 29.99 inHg , 1015.6 hPa
Clouds: Clear
Visibility: 10 miles , 16 km
2017/11/24 10:56 KMSV 241056Z AUTO 00000KT 10SM CLR M05/M07 A2999 RMK AO2 SLP173 T10501072 FZRANO
KHVN - New Haven/Tweed, Connecticut, USA
Distance from station: ENE 70mi, 112km
Updated: 11/24/2017 5:53am
Clear
Clear
 Wind from calm
Wind: Calm
Temperature: 27°F , -3°C
Dew Point: 21°F , -6°C
Humidity: 80%
Barometer: 30.03 inHg , 1016.9 hPa
Clouds: Clear
Visibility: 10 miles , 16 km
2017/11/24 10:53 KHVN 241053Z 00000KT 10SM CLR M03/M06 A3003 RMK AO2 SLP170 T10331056
 
KMPO - Mt. Pocono, Pennsylvania, USA
Distance from station: WNW 70mi, 113km
Updated: 11/24/2017 5:53am
Clear
Clear
 Wind from WNW
Wind: WNW 7 mph , 11 km/h
Temperature: 27°F , -3°C
Wind Chill: 19°F , -7°C
Dew Point: 19°F , -7°C
Humidity: 74%
Barometer: 29.95 inHg , 1014.2 hPa
Clouds: Clear
Visibility: 10 miles , 16 km
2017/11/24 10:53 KMPO 241053Z AUTO 30006KT 10SM CLR M03/M07 A2995 RMK AO2 SLP167 T10281067
KPNE - Philadelphia/Ne, Pennsylvania, USA
Distance from station: SW 72mi, 116km
Updated: 11/24/2017 5:54am
Clear
Clear
 Wind from calm
Wind: Calm
Temperature: 30°F , -1°C
Dew Point: 23°F , -5°C
Humidity: 75%
Barometer: 30.08 inHg , 1018.6 hPa
Clouds: Clear
Visibility: 10 miles , 16 km
2017/11/24 10:54 KPNE 241054Z 00000KT 10SM CLR M01/M05 A3008 RMK AO2 SLP185 T10111050
 
KABE - Allentown, Pennsylvania, USA
Distance from station: W 73mi, 117km
Updated: 11/24/2017 5:51am
Clear
Clear
 Wind from calm
Wind: Calm
Temperature: 25°F , -4°C
Dew Point: 18°F , -8°C
Humidity: 74%
Barometer: 30.05 inHg , 1017.6 hPa
Clouds: Clear
Visibility: 10 miles , 16 km
2017/11/24 10:51 KABE 241051Z 00000KT 10SM CLR M04/M08 A3005 RMK AO2 SLP179 T10441078 $
KUKT - Quakertown Arp, Pennsylvania, USA
Distance from station: WSW 74mi, 119km
Updated: 11/24/2017 5:55am
Clear
Clear
 Wind from calm
Wind: Calm
Temperature: 23°F , -5°C
Dew Point: 19°F , -7°C
Humidity: 86%
Barometer: 30.05 inHg , 1017.6 hPa
Clouds: Clear
Visibility: 10 miles , 16 km
2017/11/24 10:55 KUKT 241055Z AUTO 00000KT 10SM CLR M05/M07 A3005 RMK AO1
 
KVAY - Mount Holly, New Jersey, USA
Distance from station: SSW 75mi, 120km
Updated: 11/24/2017 5:54am

 Wind from calm
Wind: Calm
Temperature: 25°F , -4°C
Dew Point: 23°F , -5°C
Humidity: 93%
Barometer: 30.07 inHg , 1018.3 hPa
Visibility: 9 miles , 14 km
2017/11/24 10:54 KVAY 241054Z AUTO 00000KT 9SM M04/M05 A3007 RMK AO2 SLP183 I1000 T10391050 $
KXLL - Allentown Queen, Pennsylvania, USA
Distance from station: WSW 76mi, 122km
Updated: 11/24/2017 5:55am
Clear
Clear
 Wind from calm
Wind: Calm
Temperature: 28°F , -2°C
Dew Point: 23°F , -5°C
Humidity: 80%
Barometer: 30.06 inHg , 1017.9 hPa
Clouds: Clear
Visibility: 10 miles , 16 km
2017/11/24 10:55 KXLL 241055Z AUTO 00000KT 10SM CLR M02/M05 A3006 RMK AO2
 
KFOK - Westhampton Beac, New York, USA
Distance from station: E 77mi, 124km
Updated: 11/24/2017 5:53am
Clear
Clear
 Wind from calm
Wind: Calm
Temperature: 19°F , -7°C
Dew Point: 16°F , -9°C
Humidity: 86%
Barometer: 30.05 inHg , 1017.6 hPa
Clouds: Clear
Visibility: 10 miles , 16 km
2017/11/24 10:53 KFOK 241053Z AUTO 00000KT 10SM CLR M07/M09 A3005 RMK AO2 SLP176 T10671089
KLOM - Philly Wings F, Pennsylvania, USA
Distance from station: SW 79mi, 128km
Updated: 11/24/2017 5:55am
Clear
Clear
 Wind from calm
Wind: Calm
Temperature: 27°F , -3°C
Dew Point: 25°F , -4°C
Humidity: 93%
Barometer: 30.07 inHg , 1018.3 hPa
Clouds: Clear
Visibility: 10 miles , 16 km
2017/11/24 10:55 KLOM 241055Z AUTO 00000KT 10SM CLR M03/M04 A3007 RMK AO1
 
KMMK - Meriden, Connecticut, USA
Distance from station: NE 80mi, 128km
Updated: 11/24/2017 5:53am
Clear
Clear
 Wind from calm
Wind: Calm
Temperature: 23°F , -5°C
Dew Point: 21°F , -6°C
Humidity: 93%
Barometer: 30.03 inHg , 1016.9 hPa
Clouds: Clear
Visibility: 10 miles , 16 km
2017/11/24 10:53 KMMK 241053Z AUTO 00000KT 10SM CLR M05/M06 A3003 RMK AO2 SLP172 I1000 T10501061
KPTW - Pottstown, Pennsylvania, USA
Distance from station: WSW 88mi, 141km
Updated: 11/24/2017 5:54am
Clear
Clear
 Wind from calm
Wind: Calm
Temperature: 23°F , -5°C
Dew Point: 19°F , -7°C
Humidity: 86%
Barometer: 30.07 inHg , 1018.3 hPa
Clouds: Clear
Visibility: 7 miles , 11 km
2017/11/24 10:54 KPTW 241054Z AUTO 00000KT 7SM CLR M05/M07 A3007 RMK AO2 SLP183 T10501067
 
KSNC - Chester, Connecticut, USA
Distance from station: ENE 90mi, 146km
Updated: 11/24/2017 5:55am
Clear
Clear
 Wind from calm
Wind: Calm
Temperature: 28°F , -2°C
Dew Point: 21°F , -6°C
Humidity: 74%
Barometer: 30.01 inHg , 1016.3 hPa
Clouds: Clear
Visibility: 10 miles , 16 km
2017/11/24 10:55 KSNC 241055Z AUTO 00000KT 10SM CLR M02/M06 A3001 RMK AO2
KPHL - Philadelphia, Pennsylvania, USA
Distance from station: SW 91mi, 146km
Updated: 11/24/2017 5:54am
Clear
Clear
 Wind from WSW
Wind: WSW 5 mph , 7 km/h
Temperature: 32°F , 0°C
Wind Chill: 27°F , -3°C
Dew Point: 27°F , -3°C
Humidity: 80%
Barometer: 30.08 inHg , 1018.6 hPa
Clouds: Clear
Visibility: 10 miles , 16 km
2017/11/24 10:54 KPHL 241054Z 24004KT 10SM CLR 00/M03 A3008 RMK AO2 SLP184 T00001028
 
KAVP - Avoca/Wilkes B., Pennsylvania, USA
Distance from station: WNW 91mi, 147km
Updated: 11/24/2017 5:54am
Clear
Clear
 Wind from calm
Wind: Calm
Temperature: 28°F , -2°C
Dew Point: 23°F , -5°C
Humidity: 80%
Barometer: 30.01 inHg , 1016.3 hPa
Clouds: Clear
Visibility: 10 miles , 16 km
2017/11/24 10:54 KAVP 241054Z 00000KT 10SM CLR M02/M05 A3001 RMK AO2 SLP171 T10171050
KHFD - Hartford/Brainar, Connecticut, USA
Distance from station: NE 96mi, 155km
Updated: 11/24/2017 5:53am
Clear
Clear
 Wind from calm
Wind: Calm
Temperature: 27°F , -3°C
Dew Point: 25°F , -4°C
Humidity: 93%
Barometer: 30.03 inHg , 1016.9 hPa
Clouds: Clear
Visibility: 10 miles , 16 km
2017/11/24 10:53 KHFD 241053Z 00000KT 10SM CLR M03/M04 A3003 RMK AO2 SLP169 T10281044 PNO $
 
KHTO - East Hampton, New York, USA
Distance from station: E 96mi, 155km
Updated: 11/24/2017 5:55am
Clear
Clear
 Wind from calm
Wind: Calm
Temperature: 23°F , -5°C
Dew Point: 21°F , -6°C
Humidity: 93%
Barometer: 30.03 inHg , 1016.9 hPa
Clouds: Clear
Visibility: 10 miles , 16 km
2017/11/24 10:55 KHTO 241055Z AUTO 00000KT 10SM CLR M05/M06 A3003 RMK AO2 T10481057
KACY - Atlantic City, New Jersey, USA
Distance from station: SSW 99mi, 160km
Updated: 11/24/2017 5:54am
Clear
Clear
 Wind from calm
Wind: Calm
Temperature: 27°F , -3°C
Dew Point: 21°F , -6°C
Humidity: 80%
Barometer: 30.08 inHg , 1018.6 hPa
Clouds: Clear
Visibility: 10 miles , 16 km
2017/11/24 10:54 KACY 241054Z 00000KT 10SM CLR M03/M06 A3008 RMK AO2 SLP186 T10331056